createdAt,value
2018-04-15T00:01:49.670Z,46.43
2018-04-15T00:04:18.129Z,50.63
2018-04-15T00:06:47.218Z,50.60
2018-04-15T00:09:15.453Z,50.33
2018-04-15T00:11:45.238Z,44.90
2018-04-15T00:14:13.559Z,46.60
2018-04-15T00:16:42.183Z,45.53
2018-04-15T00:19:10.751Z,44.43
2018-04-15T00:21:39.746Z,53.23
2018-04-15T00:24:08.374Z,40.00
2018-04-15T00:26:36.918Z,45.07
2018-04-15T00:29:06.510Z,45.57
2018-04-15T00:31:34.621Z,54.80
2018-04-15T00:34:03.295Z,48.00
2018-04-15T00:36:32.290Z,46.17
2018-04-15T00:39:00.595Z,46.30
2018-04-15T00:41:28.862Z,48.17
2018-04-15T00:43:57.094Z,47.20
2018-04-15T00:46:25.326Z,49.80
2018-04-15T00:48:53.618Z,44.53
2018-04-15T00:51:23.209Z,48.23
2018-04-15T00:54:03.496Z,47.23
2018-04-15T00:56:31.727Z,42.87
2018-04-15T00:59:01.314Z,48.30
2018-04-15T01:01:29.598Z,49.63
2018-04-15T01:03:57.835Z,45.53
2018-04-15T01:06:26.066Z,47.80
2018-04-15T01:08:55.694Z,45.80
2018-04-15T01:11:23.803Z,45.30
2018-04-15T01:13:52.802Z,53.03
2018-04-15T01:16:21.540Z,43.47
2018-04-15T01:18:50.302Z,41.57
2018-04-15T01:21:18.534Z,41.40
2018-04-15T01:23:48.343Z,42.40
2018-04-15T01:26:16.510Z,50.57
2018-04-15T01:28:44.747Z,49.50
2018-04-15T01:31:13.017Z,48.57
2018-04-15T01:33:41.303Z,48.90
2018-04-15T01:36:09.936Z,44.87
2018-04-15T01:38:38.609Z,51.13
2018-04-15T01:41:07.242Z,49.17
2018-04-15T01:43:35.550Z,45.07
2018-04-15T01:46:04.079Z,40.77
2018-04-15T01:48:32.319Z,39.83
2018-04-15T01:51:01.760Z,45.47
2018-04-15T01:53:30.791Z,42.97
2018-04-15T01:55:59.817Z,38.30
2018-04-15T01:58:28.062Z,34.27
2018-04-15T02:00:56.348Z,37.03
2018-04-15T02:03:24.629Z,27.47
2018-04-15T02:05:52.891Z,30.77
2018-04-15T02:08:22.987Z,31.40
2018-04-15T02:10:51.299Z,34.40
2018-04-15T02:13:19.522Z,29.13
2018-04-15T02:15:47.954Z,31.80
2018-04-15T02:18:16.986Z,43.97
2018-04-15T02:20:45.219Z,42.13
2018-04-15T02:23:13.885Z,29.13
2018-04-15T02:25:42.118Z,33.97
2018-04-15T02:28:13.355Z,35.80
2018-04-15T02:30:41.494Z,38.03
2018-04-15T02:33:09.736Z,38.13
2018-04-15T02:35:37.967Z,32.73
2018-04-15T02:38:09.344Z,37.63
2018-04-15T02:40:38.923Z,37.20
2018-04-15T02:43:08.171Z,40.20
2018-04-15T02:45:37.786Z,36.27
2018-04-15T02:48:06.290Z,27.07
2018-04-15T02:50:34.532Z,35.13
2018-04-15T02:53:04.166Z,24.50
2018-04-15T02:55:33.614Z,23.20
2018-04-15T02:58:03.073Z,20.77
2018-04-15T03:00:32.148Z,20.00
2018-04-15T03:03:00.783Z,22.30
2018-04-15T03:05:30.362Z,22.00
2018-04-15T03:07:59.266Z,22.73
2018-04-15T03:10:27.503Z,24.83
2018-04-15T03:12:57.243Z,25.83
2018-04-15T03:15:25.750Z,25.37
2018-04-15T03:17:55.335Z,29.67
2018-04-15T03:20:24.582Z,29.13
2018-04-15T03:22:53.995Z,28.37
2018-04-15T03:25:22.235Z,28.60
2018-04-15T03:27:51.266Z,26.50
2018-04-15T03:30:19.562Z,26.90
2018-04-15T03:32:49.166Z,28.50
2018-04-15T03:35:17.270Z,26.03
2018-04-15T03:37:46.924Z,23.37
2018-04-15T03:40:15.542Z,21.77
2018-04-15T03:42:44.911Z,22.20
2018-04-15T03:45:13.463Z,25.47
2018-04-15T03:47:43.046Z,22.40
2018-04-15T03:50:11.159Z,21.07
2018-04-15T03:52:39.815Z,19.70
2018-04-15T03:55:08.048Z,15.60
2018-04-15T03:57:36.282Z,13.27
2018-04-15T04:00:05.431Z,12.97
2018-04-15T04:02:34.431Z,12.63
2018-04-15T04:05:04.171Z,15.20
2018-04-15T04:07:34.122Z,13.17
2018-04-15T04:10:03.702Z,13.77
2018-04-15T04:12:32.955Z,13.93
2018-04-15T04:15:02.358Z,11.90
2018-04-15T04:17:42.427Z,12.90
2018-04-15T04:20:23.513Z,14.17
2018-04-15T04:23:04.426Z,12.20
2018-04-15T04:25:38.723Z,12.77
2018-04-15T04:28:07.728Z,14.30
2018-04-15T04:30:37.471Z,12.90
2018-04-15T04:33:07.131Z,13.33
2018-04-15T04:35:35.371Z,13.13
2018-04-15T04:38:03.599Z,10.80
2018-04-15T04:40:31.971Z,12.07
2018-04-15T04:43:00.206Z,11.43
2018-04-15T04:45:28.434Z,10.83
2018-04-15T04:47:58.389Z,11.90
2018-04-15T04:50:27.798Z,10.50
2018-04-15T04:52:56.795Z,11.10
2018-04-15T04:55:25.063Z,10.50
2018-04-15T04:57:54.054Z,11.97
2018-04-15T05:00:22.281Z,10.27
2018-04-15T05:02:51.998Z,11.57
2018-04-15T05:05:20.514Z,10.57
2018-04-15T05:07:48.738Z,11.10
2018-04-15T05:10:17.708Z,10.13
2018-04-15T05:12:47.440Z,7.60
2018-04-15T05:15:17.202Z,8.80
2018-04-15T05:17:45.422Z,11.80
2018-04-15T05:20:13.658Z,10.30
2018-04-15T05:22:42.028Z,10.47
2018-04-15T05:25:10.263Z,15.30
2018-04-15T05:27:39.946Z,13.20
2018-04-15T05:30:09.034Z,14.30
2018-04-15T05:32:37.659Z,11.47
2018-04-15T05:35:07.242Z,13.77
2018-04-15T05:37:36.790Z,19.90
2018-04-15T05:40:04.860Z,16.60
2018-04-15T05:42:34.222Z,27.53
2018-04-15T05:45:03.425Z,27.30
2018-04-15T05:47:33.019Z,19.63
2018-04-15T05:50:02.622Z,14.90
2018-04-15T05:52:32.981Z,20.50
2018-04-15T05:55:02.719Z,23.30
2018-04-15T05:57:30.946Z,18.73
2018-04-15T05:59:59.217Z,25.63
2018-04-15T06:02:28.806Z,31.80
2018-04-15T06:04:57.707Z,19.97
2018-04-15T06:07:26.074Z,17.07
2018-04-15T06:09:54.303Z,14.13
2018-04-15T06:12:24.047Z,17.17
2018-04-15T06:14:52.958Z,18.53
2018-04-15T06:17:21.547Z,15.07
2018-04-15T06:19:49.787Z,12.77
2018-04-15T06:22:18.054Z,14.23
2018-04-15T06:24:46.279Z,10.93
2018-04-15T06:27:14.516Z,12.23
2018-04-15T06:29:44.683Z,19.10
2018-04-15T06:32:14.431Z,12.50
2018-04-15T06:34:42.670Z,13.70
2018-04-15T06:37:11.222Z,15.43
2018-04-15T06:39:40.600Z,14.67
2018-04-15T06:42:09.590Z,14.70
2018-04-15T06:44:38.487Z,14.80
2018-04-15T06:47:07.116Z,13.43
2018-04-15T06:49:35.346Z,13.37
2018-04-15T06:52:03.907Z,13.67
2018-04-15T06:54:32.175Z,15.73
2018-04-15T06:57:00.411Z,16.23
2018-04-15T06:59:30.356Z,19.80
2018-04-15T07:01:59.599Z,17.83
2018-04-15T07:04:27.831Z,19.97
2018-04-15T07:06:56.102Z,21.67
2018-04-15T07:09:25.681Z,18.13
2018-04-15T07:11:54.191Z,15.63
2018-04-15T07:14:29.074Z,14.17
2018-04-15T07:16:58.662Z,14.30
2018-04-15T07:19:26.775Z,14.73
2018-04-15T07:21:55.311Z,14.93
2018-04-15T07:24:24.887Z,15.50
2018-04-15T07:26:54.353Z,15.97
2018-04-15T07:29:22.895Z,17.00
2018-04-15T07:31:51.127Z,15.17
2018-04-15T07:34:20.140Z,13.07
2018-04-15T07:36:48.782Z,14.63
2018-04-15T07:39:17.411Z,15.00
2018-04-15T07:41:46.410Z,14.17
2018-04-15T07:44:15.763Z,12.57
2018-04-15T07:46:44.393Z,10.60
2018-04-15T07:49:12.615Z,10.90
2018-04-15T07:51:42.240Z,11.50
2018-04-15T07:54:10.348Z,11.33
2018-04-15T07:56:38.588Z,13.20
2018-04-15T07:59:08.449Z,13.50
2018-04-15T08:01:37.326Z,15.47
2018-04-15T08:04:07.079Z,16.70
2018-04-15T08:06:35.351Z,14.87
2018-04-15T08:09:03.591Z,17.20
2018-04-15T08:11:32.959Z,11.53
2018-04-15T08:14:01.431Z,12.70
2018-04-15T08:16:29.667Z,10.93
2018-04-15T08:18:57.893Z,9.63
2018-04-15T08:21:26.149Z,8.80
2018-04-15T08:23:55.139Z,8.97
2018-04-15T08:26:24.131Z,8.93
2018-04-15T08:28:52.682Z,7.30
2018-04-15T08:31:21.674Z,7.50
2018-04-15T08:33:49.903Z,5.40
2018-04-15T08:36:18.930Z,6.10
2018-04-15T08:38:47.919Z,6.70
2018-04-15T08:41:16.136Z,5.60
2018-04-15T08:43:45.182Z,4.53
2018-04-15T08:46:14.166Z,5.40
2018-04-15T08:48:43.160Z,5.57
2018-04-15T08:51:12.721Z,4.33
2018-04-15T08:53:41.709Z,4.30
2018-04-15T08:56:11.282Z,5.23
2018-04-15T08:58:42.447Z,3.90
2018-04-15T09:01:11.068Z,4.07
2018-04-15T09:03:39.290Z,4.17
2018-04-15T09:06:07.810Z,4.87
2018-04-15T09:08:36.032Z,3.93
2018-04-15T09:11:04.261Z,3.40
2018-04-15T09:13:33.887Z,4.03
2018-04-15T09:16:02.384Z,3.50
2018-04-15T09:18:30.611Z,3.40
2018-04-15T09:20:59.188Z,3.53
2018-04-15T09:23:27.802Z,4.00
2018-04-15T09:25:56.031Z,5.07
2018-04-15T09:28:24.290Z,3.53
2018-04-15T09:30:58.230Z,5.67
2018-04-15T09:33:26.527Z,3.53
2018-04-15T09:35:54.746Z,3.70
2018-04-15T09:38:24.322Z,3.80
2018-04-15T09:40:53.210Z,3.00
2018-04-15T09:43:21.826Z,3.50
2018-04-15T09:45:51.402Z,2.97
2018-04-15T09:48:20.913Z,2.73
2018-04-15T09:50:49.411Z,2.03
2018-04-15T09:53:17.635Z,3.10
2018-04-15T09:55:47.262Z,3.87
2018-04-15T09:58:15.362Z,2.07
2018-04-15T10:00:48.430Z,2.13
2018-04-15T10:03:17.795Z,1.47
2018-04-15T10:05:47.374Z,3.27
2018-04-15T10:08:17.026Z,2.87
2018-04-15T10:10:46.391Z,2.57
2018-04-15T10:13:14.614Z,1.93
2018-04-15T10:15:44.498Z,2.20
2018-04-15T10:18:12.599Z,1.63
2018-04-15T10:20:41.218Z,1.83
2018-04-15T10:23:12.675Z,1.97
2018-04-15T10:25:41.666Z,1.57
2018-04-15T10:28:09.891Z,2.37
2018-04-15T10:30:39.523Z,2.00
2018-04-15T10:33:07.619Z,2.07
2018-04-15T10:35:37.346Z,2.23
2018-04-15T10:38:06.787Z,2.03
2018-04-15T10:40:35.406Z,1.67
2018-04-15T10:43:04.399Z,1.03
2018-04-15T10:45:32.830Z,1.47
2018-04-15T10:48:01.818Z,1.87
2018-04-15T10:50:31.394Z,1.27
2018-04-15T10:52:59.931Z,1.67
2018-04-15T10:55:28.159Z,5.90
2018-04-15T10:57:56.382Z,5.50
2018-04-15T11:00:25.435Z,3.23
2018-04-15T11:02:54.428Z,1.67
2018-04-15T11:05:23.419Z,2.20
2018-04-15T11:07:53.091Z,3.93
2018-04-15T11:10:22.823Z,3.77
2018-04-15T11:12:51.441Z,3.13
2018-04-15T11:15:21.478Z,2.80
2018-04-15T11:17:51.230Z,1.80
2018-04-15T11:20:19.454Z,2.60
2018-04-15T11:22:48.027Z,2.53
2018-04-15T11:25:17.391Z,2.10
2018-04-15T11:27:45.607Z,2.80
2018-04-15T11:30:14.050Z,2.57
2018-04-15T11:32:43.787Z,2.20
2018-04-15T11:35:12.403Z,8.13
2018-04-15T11:37:42.178Z,3.33
2018-04-15T11:40:10.411Z,4.40
2018-04-15T11:42:38.626Z,4.20
2018-04-15T11:45:08.552Z,6.20
2018-04-15T11:47:37.487Z,4.80
2018-04-15T11:50:06.475Z,3.97
2018-04-15T11:52:34.953Z,7.50
2018-04-15T11:55:03.172Z,2.63
2018-04-15T11:57:31.399Z,3.10
2018-04-15T11:59:59.663Z,3.00
2018-04-15T12:02:27.891Z,3.30
2018-04-15T12:04:57.470Z,4.13
2018-04-15T12:07:25.662Z,3.63
2018-04-15T12:09:55.395Z,4.37
2018-04-15T12:12:24.019Z,3.67
2018-04-15T12:14:52.522Z,6.70
2018-04-15T12:17:22.101Z,3.63
2018-04-15T12:19:50.202Z,3.17
2018-04-15T12:22:18.463Z,2.77
2018-04-15T12:24:46.687Z,2.07
2018-04-15T12:27:16.414Z,3.00
2018-04-15T12:29:44.696Z,3.17
2018-04-15T12:32:14.447Z,3.00
2018-04-15T12:37:43.700Z,2.87
2018-04-15T12:40:13.063Z,2.73
2018-04-15T12:42:42.634Z,2.93
2018-04-15T12:45:11.379Z,5.80
2018-04-15T12:47:40.955Z,2.97
2018-04-15T12:50:10.190Z,2.93
2018-04-15T12:52:42.944Z,2.70
2018-04-15T12:55:12.174Z,4.20
2018-04-15T12:57:41.535Z,3.07
2018-04-15T13:00:09.803Z,6.70
2018-04-15T13:02:38.791Z,2.77
2018-04-15T13:05:07.010Z,3.73
2018-04-15T13:07:36.071Z,3.17
2018-04-15T13:10:04.287Z,2.63
2018-04-15T13:12:32.511Z,2.60
2018-04-15T13:15:02.166Z,2.70
2018-04-15T13:17:30.655Z,2.97
2018-04-15T13:20:00.850Z,3.20
2018-04-15T13:22:29.219Z,2.90
2018-04-15T13:24:58.943Z,2.83
2018-04-15T13:27:27.171Z,2.60
2018-04-15T13:29:57.197Z,3.47
2018-04-15T13:32:26.190Z,3.13
2018-04-15T13:34:55.919Z,2.67
2018-04-15T13:37:24.235Z,2.17
2018-04-15T13:39:52.454Z,2.57
2018-04-15T13:42:22.187Z,2.13
2018-04-15T13:44:52.222Z,3.77
2018-04-15T13:47:20.439Z,3.20
2018-04-15T13:49:49.803Z,2.60
2018-04-15T13:52:18.575Z,3.07
2018-04-15T13:54:48.311Z,2.47
2018-04-15T13:57:16.540Z,3.40
2018-04-15T13:59:45.559Z,3.57
2018-04-15T14:02:14.953Z,3.23
2018-04-15T14:04:43.555Z,3.93
2018-04-15T14:07:11.815Z,3.47
2018-04-15T14:09:40.808Z,2.53
2018-04-15T14:12:09.427Z,4.17
2018-04-15T14:14:37.697Z,3.20
2018-04-15T14:17:07.055Z,2.93
2018-04-15T14:19:35.643Z,4.03
2018-04-15T14:22:04.259Z,2.73
2018-04-15T14:24:33.838Z,2.63
2018-04-15T14:27:01.996Z,1.30
2018-04-15T14:29:31.603Z,4.30
2018-04-15T14:31:59.706Z,1.93
2018-04-15T14:34:28.227Z,4.50
2018-04-15T14:36:56.847Z,1.83
2018-04-15T14:39:25.075Z,2.30
2018-04-15T14:41:54.475Z,2.10
2018-04-15T14:44:24.054Z,1.30
2018-04-15T14:46:53.287Z,2.07
2018-04-15T14:49:21.606Z,2.60
2018-04-15T14:51:49.835Z,1.57
2018-04-15T14:54:18.822Z,3.80
2018-04-15T14:56:47.260Z,4.40
2018-04-15T14:59:16.987Z,2.07
2018-04-15T15:01:46.566Z,3.00
2018-04-15T15:04:15.466Z,1.67
2018-04-15T15:06:43.698Z,1.87
2018-04-15T15:09:11.928Z,2.43
2018-04-15T15:11:40.600Z,2.10
2018-04-15T15:14:08.827Z,5.03
2018-04-15T15:16:38.401Z,6.57
2018-04-15T15:19:08.062Z,1.40
2018-04-15T15:21:36.287Z,3.00
2018-04-15T15:24:04.502Z,3.13
2018-04-15T15:26:32.802Z,1.37
2018-04-15T15:29:01.026Z,1.43
2018-04-15T15:31:30.770Z,1.57
2018-04-15T15:33:59.275Z,3.20
2018-04-15T15:36:28.846Z,1.33
2018-04-15T15:38:56.934Z,1.80
2018-04-15T15:41:25.613Z,5.13
2018-04-15T15:43:54.959Z,5.30
2018-04-15T15:46:23.177Z,3.00
2018-04-15T15:48:51.745Z,2.43
2018-04-15T15:51:21.309Z,2.10
2018-04-15T15:53:49.415Z,2.90
2018-04-15T15:56:17.700Z,3.63
2018-04-15T15:58:47.363Z,4.40
2018-04-15T16:01:16.594Z,2.70
2018-04-15T16:03:45.418Z,2.40
2018-04-15T16:06:14.784Z,2.03
2018-04-15T16:08:44.353Z,4.90
2018-04-15T16:11:12.711Z,8.67
2018-04-15T16:13:42.473Z,3.97
2018-04-15T16:16:11.461Z,7.53
2018-04-15T16:18:40.878Z,7.40
2018-04-15T16:21:10.453Z,5.40
2018-04-15T16:23:38.945Z,8.53
2018-04-15T16:26:08.883Z,4.43
2018-04-15T16:28:37.871Z,8.93
2018-04-15T16:31:06.090Z,1.80
2018-04-15T16:33:35.521Z,2.37
2018-04-15T16:36:05.093Z,2.40
2018-04-15T16:38:33.588Z,3.93
2018-04-15T16:41:01.917Z,2.13
2018-04-15T16:43:30.208Z,4.20
2018-04-15T16:45:58.426Z,4.77
2018-04-15T16:48:26.751Z,4.40
2018-04-15T16:50:54.975Z,4.80
2018-04-15T16:53:24.339Z,2.73
2018-04-15T16:55:53.526Z,2.80
2018-04-15T16:58:22.515Z,2.43
2018-04-15T17:00:52.093Z,2.13
2018-04-15T17:03:20.886Z,2.10
2018-04-15T17:05:50.615Z,2.00
2018-04-15T17:08:19.971Z,1.83
2018-04-15T17:10:49.002Z,2.37
2018-04-15T17:13:17.227Z,2.53
2018-04-15T17:15:45.539Z,1.87
2018-04-15T17:18:13.980Z,1.83
2018-04-15T17:20:43.345Z,2.57
2018-04-15T17:23:11.567Z,2.43
2018-04-15T17:25:40.203Z,2.43
2018-04-15T17:28:08.447Z,3.00
2018-04-15T17:30:36.646Z,2.37
2018-04-15T17:33:05.123Z,1.83
2018-04-15T17:35:34.114Z,1.57
2018-04-15T17:38:02.337Z,1.53
2018-04-15T17:40:33.246Z,1.67
2018-04-15T17:43:01.345Z,1.60
2018-04-15T17:45:29.562Z,1.53
2018-04-15T17:47:58.926Z,1.50
2018-04-15T17:50:28.503Z,1.60
2018-04-15T17:52:57.010Z,3.27
2018-04-15T17:55:25.885Z,2.17
2018-04-15T17:57:55.239Z,2.03
2018-04-15T18:00:23.461Z,1.60
2018-04-15T18:02:51.741Z,1.40
2018-04-15T18:05:19.967Z,1.20
2018-04-15T18:07:48.215Z,2.13
2018-04-15T18:10:17.367Z,1.80
2018-04-15T18:12:45.591Z,1.67
2018-04-15T18:15:13.815Z,3.37
2018-04-15T18:17:42.382Z,1.73
2018-04-15T18:20:12.078Z,2.10
2018-04-15T18:22:41.653Z,2.33
2018-04-15T18:25:10.556Z,1.77
2018-04-15T18:27:38.779Z,1.87
2018-04-15T18:30:08.350Z,1.53
2018-04-15T18:32:36.887Z,2.00
2018-04-15T18:35:05.120Z,2.30
2018-04-15T18:37:33.342Z,1.87
2018-04-15T18:40:01.783Z,1.47
2018-04-15T18:42:31.363Z,2.57
2018-04-15T18:44:59.463Z,2.20
2018-04-15T18:47:27.732Z,2.30
2018-04-15T18:49:56.351Z,1.87
2018-04-15T18:52:25.711Z,2.40
2018-04-15T18:54:54.029Z,3.37
2018-04-15T18:57:22.247Z,2.13
2018-04-15T18:59:51.979Z,1.73
2018-04-15T19:02:20.258Z,1.73
2018-04-15T19:04:48.483Z,2.43
2018-04-15T19:07:18.219Z,1.57
2018-04-15T19:09:47.395Z,2.07
2018-04-15T19:12:16.954Z,1.50
2018-04-15T19:14:45.163Z,1.87
2018-04-15T19:17:13.482Z,2.07
2018-04-15T19:19:43.054Z,3.03
2018-04-15T19:22:11.154Z,2.83
2018-04-15T19:24:41.167Z,2.20
2018-04-15T19:27:10.031Z,2.50
2018-04-15T19:29:39.393Z,1.80
2018-04-15T19:32:08.420Z,3.00
2018-04-15T19:34:37.408Z,3.67
2018-04-15T19:37:05.626Z,2.33
2018-04-15T19:39:35.357Z,2.20
2018-04-15T19:42:03.985Z,3.33
2018-04-15T19:44:32.187Z,2.67
2018-04-15T19:47:01.969Z,3.03
2018-04-15T19:49:30.186Z,4.33
2018-04-15T19:51:59.758Z,3.43
2018-04-15T19:54:29.519Z,3.10
2018-04-15T19:56:59.094Z,2.60
2018-04-15T19:59:27.194Z,3.20
2018-04-15T20:01:56.922Z,2.67
2018-04-15T20:04:25.787Z,2.90
2018-04-15T20:06:55.358Z,2.90
2018-04-15T20:09:23.807Z,3.40
2018-04-15T20:11:53.349Z,2.93
2018-04-15T20:14:21.538Z,2.97
2018-04-15T20:16:51.442Z,3.50
2018-04-15T20:19:19.670Z,2.67
2018-04-15T20:21:47.891Z,3.67
2018-04-15T20:24:16.939Z,3.27
2018-04-15T20:26:45.925Z,3.17
2018-04-15T20:29:14.547Z,3.20
2018-04-15T20:31:43.104Z,2.97
2018-04-15T20:34:12.678Z,3.97
2018-04-15T20:36:42.294Z,3.20
2018-04-15T20:39:11.625Z,3.53
2018-04-15T20:41:40.615Z,3.73
2018-04-15T20:44:08.839Z,3.80
2018-04-15T20:46:38.646Z,4.47
2018-04-15T20:49:06.738Z,4.17
2018-04-15T20:51:34.967Z,4.30
2018-04-15T20:54:03.491Z,5.90
2018-04-15T20:56:31.719Z,4.90
2018-04-15T20:58:59.943Z,4.43
2018-04-15T21:01:28.598Z,3.70
2018-04-15T21:03:57.595Z,3.93
2018-04-15T21:06:25.814Z,4.70
2018-04-15T21:08:55.242Z,4.47
2018-04-15T21:11:23.871Z,4.57
2018-04-15T21:13:52.856Z,5.87
2018-04-15T21:16:23.029Z,4.50
2018-04-15T21:18:52.392Z,6.27
2018-04-15T21:21:20.611Z,6.03
2018-04-15T21:23:49.470Z,4.00
2018-04-15T21:26:19.193Z,5.10
2018-04-15T21:28:48.554Z,5.03
2018-04-15T21:31:16.833Z,4.00
2018-04-15T21:33:45.823Z,4.30
2018-04-15T21:36:15.079Z,7.73
2018-04-15T21:38:43.313Z,5.80
2018-04-15T21:41:11.539Z,4.97
2018-04-15T21:43:39.762Z,4.33
2018-04-15T21:46:09.823Z,5.07
2018-04-15T21:48:39.546Z,5.03
2018-04-15T21:51:08.543Z,5.27
2018-04-15T21:53:38.103Z,4.90
2018-04-15T21:56:07.831Z,4.47
2018-04-15T21:58:36.823Z,6.43
2018-04-15T22:01:05.110Z,6.07
2018-04-15T22:03:34.132Z,5.80
2018-04-15T22:06:02.327Z,12.60
2018-04-15T22:08:30.986Z,5.63
2018-04-15T22:11:00.351Z,5.23
2018-04-15T22:13:29.339Z,6.10
2018-04-15T22:15:58.742Z,5.10
2018-04-15T22:18:29.183Z,6.10
2018-04-15T22:20:57.414Z,6.33
2018-04-15T22:23:27.266Z,5.83
2018-04-15T22:25:55.495Z,7.13
2018-04-15T22:28:23.714Z,6.57
2018-04-15T22:30:51.973Z,7.50
2018-04-15T22:33:20.190Z,6.53
2018-04-15T22:35:49.918Z,7.90
2018-04-15T22:38:18.514Z,15.93
2018-04-15T22:40:46.746Z,7.00
2018-04-15T22:43:14.958Z,6.90
2018-04-15T22:45:47.579Z,5.97
2018-04-15T22:48:16.194Z,6.70
2018-04-15T22:50:44.419Z,6.10
2018-04-15T22:53:13.559Z,6.70
2018-04-15T22:55:42.547Z,7.00
2018-04-15T22:58:10.777Z,8.17
2018-04-15T23:00:40.195Z,7.50
2018-04-15T23:03:08.816Z,7.20
2018-04-15T23:05:37.036Z,8.33
2018-04-15T23:08:05.307Z,17.63
2018-04-15T23:10:35.043Z,12.60
2018-04-15T23:13:04.035Z,7.33
2018-04-15T23:15:32.292Z,7.73
2018-04-15T23:18:01.652Z,8.30
2018-04-15T23:20:29.875Z,8.57
2018-04-15T23:22:58.241Z,10.03
2018-04-15T23:25:26.463Z,7.60
2018-04-15T23:27:54.687Z,7.70
2018-04-15T23:30:27.915Z,8.13
2018-04-15T23:32:56.903Z,9.50
2018-04-15T23:35:25.128Z,11.03
2018-04-15T23:37:54.526Z,8.37
2018-04-15T23:40:24.094Z,8.90
2018-04-15T23:42:52.591Z,9.03
2018-04-15T23:45:21.715Z,9.50
2018-04-15T23:47:51.879Z,9.13
2018-04-15T23:50:21.019Z,7.93
2018-04-15T23:52:49.245Z,8.63
2018-04-15T23:55:18.815Z,7.40
2018-04-15T23:57:47.731Z,7.13
